sensor_id;sensor_type;location;lat;lon;timestamp;temperature;humidity
52543;DHT22;38449;52.696;6.186;2023-05-29T00:01:01;10.80;99.90
52543;DHT22;38449;52.696;6.186;2023-05-29T00:03:28;10.80;99.90
52543;DHT22;38449;52.696;6.186;2023-05-29T00:05:58;10.70;99.90
52543;DHT22;38449;52.696;6.186;2023-05-29T00:08:27;10.70;99.90
52543;DHT22;38449;52.696;6.186;2023-05-29T00:10:53;10.70;99.90
52543;DHT22;38449;52.696;6.186;2023-05-29T00:13:19;10.70;99.90
52543;DHT22;38449;52.696;6.186;2023-05-29T00:15:46;10.60;99.90
52543;DHT22;38449;52.696;6.186;2023-05-29T00:18:13;10.50;99.90
52543;DHT22;38449;52.696;6.186;2023-05-29T00:20:39;10.50;99.90
52543;DHT22;38449;52.696;6.186;2023-05-29T00:23:06;10.50;99.90
52543;DHT22;38449;52.696;6.186;2023-05-29T00:25:33;10.40;99.90
52543;DHT22;38449;52.696;6.186;2023-05-29T00:27:59;10.40;99.90
52543;DHT22;38449;52.696;6.186;2023-05-29T00:30:26;10.40;99.90
52543;DHT22;38449;52.696;6.186;2023-05-29T00:32:52;10.40;99.90
52543;DHT22;38449;52.696;6.186;2023-05-29T00:35:20;10.40;99.90
52543;DHT22;38449;52.696;6.186;2023-05-29T00:37:46;10.30;99.90
52543;DHT22;38449;52.696;6.186;2023-05-29T00:40:12;10.30;99.90
52543;DHT22;38449;52.696;6.186;2023-05-29T00:42:39;10.30;99.90
52543;DHT22;38449;52.696;6.186;2023-05-29T00:45:06;10.30;99.90
52543;DHT22;38449;52.696;6.186;2023-05-29T00:47:33;10.20;99.90
52543;DHT22;38449;52.696;6.186;2023-05-29T00:49:59;10.20;99.90
52543;DHT22;38449;52.696;6.186;2023-05-29T00:52:28;10.20;99.90
52543;DHT22;38449;52.696;6.186;2023-05-29T00:54:54;10.10;99.90
52543;DHT22;38449;52.696;6.186;2023-05-29T00:57:21;10.20;99.90
52543;DHT22;38449;52.696;6.186;2023-05-29T00:59:48;10.20;99.90
52543;DHT22;38449;52.696;6.186;2023-05-29T01:02:16;10.10;99.90
52543;DHT22;38449;52.696;6.186;2023-05-29T01:04:45;10.10;99.90
52543;DHT22;38449;52.696;6.186;2023-05-29T01:07:11;10.00;99.90
52543;DHT22;38449;52.696;6.186;2023-05-29T01:09:38;10.00;99.90
52543;DHT22;38449;52.696;6.186;2023-05-29T01:12:27;10.00;99.90
52543;DHT22;38449;52.696;6.186;2023-05-29T01:20:42;9.90;99.90
52543;DHT22;38449;52.696;6.186;2023-05-29T01:28:40;9.80;99.90
52543;DHT22;38449;52.696;6.186;2023-05-29T01:31:07;9.80;99.90
52543;DHT22;38449;52.696;6.186;2023-05-29T01:33:34;9.80;99.90
52543;DHT22;38449;52.696;6.186;2023-05-29T01:36:00;9.70;99.90
52543;DHT22;38449;52.696;6.186;2023-05-29T01:38:26;9.70;99.90
52543;DHT22;38449;52.696;6.186;2023-05-29T01:40:53;9.70;99.90
52543;DHT22;38449;52.696;6.186;2023-05-29T01:43:19;9.70;99.90
52543;DHT22;38449;52.696;6.186;2023-05-29T01:45:45;9.70;99.90
52543;DHT22;38449;52.696;6.186;2023-05-29T01:48:11;9.70;99.90
52543;DHT22;38449;52.696;6.186;2023-05-29T01:50:38;9.60;99.90
52543;DHT22;38449;52.696;6.186;2023-05-29T01:53:06;9.60;99.90
52543;DHT22;38449;52.696;6.186;2023-05-29T01:55:32;9.50;99.90
52543;DHT22;38449;52.696;6.186;2023-05-29T01:57:58;9.60;99.90
52543;DHT22;38449;52.696;6.186;2023-05-29T02:00:25;9.50;99.90
52543;DHT22;38449;52.696;6.186;2023-05-29T02:02:51;9.50;99.90
52543;DHT22;38449;52.696;6.186;2023-05-29T02:05:17;9.50;99.90
52543;DHT22;38449;52.696;6.186;2023-05-29T02:07:44;9.50;99.90
52543;DHT22;38449;52.696;6.186;2023-05-29T02:10:10;9.50;99.90
52543;DHT22;38449;52.696;6.186;2023-05-29T02:12:37;9.40;99.90
52543;DHT22;38449;52.696;6.186;2023-05-29T02:15:03;9.40;99.90
52543;DHT22;38449;52.696;6.186;2023-05-29T02:17:29;9.40;99.90
52543;DHT22;38449;52.696;6.186;2023-05-29T02:19:56;9.40;99.90
52543;DHT22;38449;52.696;6.186;2023-05-29T02:22:23;9.30;99.90
52543;DHT22;38449;52.696;6.186;2023-05-29T02:24:49;9.30;99.90
52543;DHT22;38449;52.696;6.186;2023-05-29T02:27:15;9.30;99.90
52543;DHT22;38449;52.696;6.186;2023-05-29T02:29:41;9.30;99.90
52543;DHT22;38449;52.696;6.186;2023-05-29T02:32:08;9.30;99.90
52543;DHT22;38449;52.696;6.186;2023-05-29T02:34:34;9.30;99.90
52543;DHT22;38449;52.696;6.186;2023-05-29T02:37:00;9.30;99.90
52543;DHT22;38449;52.696;6.186;2023-05-29T02:39:26;9.20;99.90
52543;DHT22;38449;52.696;6.186;2023-05-29T02:41:53;9.30;99.90
52543;DHT22;38449;52.696;6.186;2023-05-29T02:44:20;9.30;99.90
52543;DHT22;38449;52.696;6.186;2023-05-29T02:46:46;9.30;99.90
52543;DHT22;38449;52.696;6.186;2023-05-29T02:49:12;9.20;99.90
52543;DHT22;38449;52.696;6.186;2023-05-29T02:51:38;9.30;99.90
52543;DHT22;38449;52.696;6.186;2023-05-29T02:54:05;9.30;99.90
52543;DHT22;38449;52.696;6.186;2023-05-29T02:56:31;9.20;99.90
52543;DHT22;38449;52.696;6.186;2023-05-29T02:58:57;9.20;99.90
52543;DHT22;38449;52.696;6.186;2023-05-29T03:01:23;9.20;99.90
52543;DHT22;38449;52.696;6.186;2023-05-29T03:03:50;9.10;99.90
52543;DHT22;38449;52.696;6.186;2023-05-29T03:06:16;9.00;99.90
52543;DHT22;38449;52.696;6.186;2023-05-29T03:08:44;9.10;99.90
52543;DHT22;38449;52.696;6.186;2023-05-29T03:11:11;9.00;99.90
52543;DHT22;38449;52.696;6.186;2023-05-29T03:13:38;9.00;99.90
52543;DHT22;38449;52.696;6.186;2023-05-29T03:16:05;9.00;99.90
52543;DHT22;38449;52.696;6.186;2023-05-29T03:18:31;9.00;99.90
52543;DHT22;38449;52.696;6.186;2023-05-29T03:20:57;9.00;99.90
52543;DHT22;38449;52.696;6.186;2023-05-29T03:23:24;9.00;99.90
52543;DHT22;38449;52.696;6.186;2023-05-29T03:25:50;8.90;99.90
52543;DHT22;38449;52.696;6.186;2023-05-29T03:28:16;8.90;99.90
52543;DHT22;38449;52.696;6.186;2023-05-29T03:30:43;8.90;99.90
52543;DHT22;38449;52.696;6.186;2023-05-29T03:33:09;8.90;99.90
52543;DHT22;38449;52.696;6.186;2023-05-29T03:35:35;8.90;99.90
52543;DHT22;38449;52.696;6.186;2023-05-29T03:38:01;8.90;99.90
52543;DHT22;38449;52.696;6.186;2023-05-29T03:40:28;8.90;99.90
52543;DHT22;38449;52.696;6.186;2023-05-29T03:42:54;8.90;99.90
52543;DHT22;38449;52.696;6.186;2023-05-29T03:45:20;8.90;99.90
52543;DHT22;38449;52.696;6.186;2023-05-29T03:47:46;8.90;99.90
52543;DHT22;38449;52.696;6.186;2023-05-29T03:50:12;8.90;99.90
52543;DHT22;38449;52.696;6.186;2023-05-29T03:52:41;8.90;99.90
52543;DHT22;38449;52.696;6.186;2023-05-29T03:55:09;8.90;99.90
52543;DHT22;38449;52.696;6.186;2023-05-29T03:57:39;8.90;99.90
52543;DHT22;38449;52.696;6.186;2023-05-29T04:00:09;8.90;99.90
52543;DHT22;38449;52.696;6.186;2023-05-29T04:02:37;9.00;99.90
52543;DHT22;38449;52.696;6.186;2023-05-29T04:05:05;9.00;99.90
52543;DHT22;38449;52.696;6.186;2023-05-29T04:07:33;9.00;99.90
52543;DHT22;38449;52.696;6.186;2023-05-29T04:09:59;9.00;99.90
52543;DHT22;38449;52.696;6.186;2023-05-29T04:12:25;9.10;99.90
52543;DHT22;38449;52.696;6.186;2023-05-29T04:14:51;9.10;99.90
52543;DHT22;38449;52.696;6.186;2023-05-29T04:17:18;9.00;99.90
52543;DHT22;38449;52.696;6.186;2023-05-29T04:19:44;9.10;99.90
52543;DHT22;38449;52.696;6.186;2023-05-29T04:22:10;9.20;99.90
52543;DHT22;38449;52.696;6.186;2023-05-29T04:24:37;9.20;99.90
52543;DHT22;38449;52.696;6.186;2023-05-29T04:27:03;9.20;99.90
52543;DHT22;38449;52.696;6.186;2023-05-29T04:29:30;9.30;99.90
52543;DHT22;38449;52.696;6.186;2023-05-29T04:31:56;9.40;99.90
52543;DHT22;38449;52.696;6.186;2023-05-29T04:34:23;9.50;99.90
52543;DHT22;38449;52.696;6.186;2023-05-29T04:36:51;9.50;99.90
52543;DHT22;38449;52.696;6.186;2023-05-29T04:39:17;9.60;99.90
52543;DHT22;38449;52.696;6.186;2023-05-29T04:41:44;9.60;99.90
52543;DHT22;38449;52.696;6.186;2023-05-29T04:44:10;9.60;99.90
52543;DHT22;38449;52.696;6.186;2023-05-29T04:46:37;9.60;99.90
52543;DHT22;38449;52.696;6.186;2023-05-29T04:49:04;9.80;99.90
52543;DHT22;38449;52.696;6.186;2023-05-29T04:51:30;9.80;99.90
52543;DHT22;38449;52.696;6.186;2023-05-29T04:53:57;10.00;99.90
52543;DHT22;38449;52.696;6.186;2023-05-29T04:56:23;10.30;99.90
52543;DHT22;38449;52.696;6.186;2023-05-29T04:58:49;10.70;99.90
52543;DHT22;38449;52.696;6.186;2023-05-29T05:01:16;11.20;99.90
52543;DHT22;38449;52.696;6.186;2023-05-29T05:03:43;11.50;99.90
52543;DHT22;38449;52.696;6.186;2023-05-29T05:06:10;12.00;99.90
52543;DHT22;38449;52.696;6.186;2023-05-29T05:08:36;12.40;99.90
52543;DHT22;38449;52.696;6.186;2023-05-29T05:11:03;12.90;99.90
52543;DHT22;38449;52.696;6.186;2023-05-29T05:13:29;13.20;99.90
52543;DHT22;38449;52.696;6.186;2023-05-29T05:15:56;13.40;99.90
52543;DHT22;38449;52.696;6.186;2023-05-29T05:18:22;13.60;99.90
52543;DHT22;38449;52.696;6.186;2023-05-29T05:20:48;13.80;99.90
52543;DHT22;38449;52.696;6.186;2023-05-29T05:23:15;13.90;99.90
52543;DHT22;38449;52.696;6.186;2023-05-29T05:25:41;14.00;99.90
52543;DHT22;38449;52.696;6.186;2023-05-29T05:28:08;14.20;99.90
52543;DHT22;38449;52.696;6.186;2023-05-29T05:30:35;14.30;99.90
52543;DHT22;38449;52.696;6.186;2023-05-29T05:33:01;14.30;99.90
52543;DHT22;38449;52.696;6.186;2023-05-29T05:35:28;14.50;99.90
52543;DHT22;38449;52.696;6.186;2023-05-29T05:37:54;14.70;99.90
52543;DHT22;38449;52.696;6.186;2023-05-29T05:40:25;15.00;99.90
52543;DHT22;38449;52.696;6.186;2023-05-29T05:42:52;15.10;99.90
52543;DHT22;38449;52.696;6.186;2023-05-29T05:45:18;15.40;99.90
52543;DHT22;38449;52.696;6.186;2023-05-29T05:47:44;15.50;99.90
52543;DHT22;38449;52.696;6.186;2023-05-29T05:50:13;15.70;99.90
52543;DHT22;38449;52.696;6.186;2023-05-29T05:52:39;15.90;99.90
52543;DHT22;38449;52.696;6.186;2023-05-29T05:55:05;16.20;99.90
52543;DHT22;38449;52.696;6.186;2023-05-29T05:57:32;16.20;99.90
52543;DHT22;38449;52.696;6.186;2023-05-29T06:00:03;16.50;99.90
52543;DHT22;38449;52.696;6.186;2023-05-29T06:02:39;16.90;99.90
52543;DHT22;38449;52.696;6.186;2023-05-29T06:05:10;17.40;99.90
52543;DHT22;38449;52.696;6.186;2023-05-29T06:07:37;17.50;99.90
52543;DHT22;38449;52.696;6.186;2023-05-29T06:10:04;17.70;99.90
52543;DHT22;38449;52.696;6.186;2023-05-29T06:12:31;17.90;99.90
52543;DHT22;38449;52.696;6.186;2023-05-29T06:14:57;17.80;99.90
52543;DHT22;38449;52.696;6.186;2023-05-29T06:17:23;17.70;99.90
52543;DHT22;38449;52.696;6.186;2023-05-29T06:19:49;17.90;99.90
52543;DHT22;38449;52.696;6.186;2023-05-29T06:22:16;17.80;99.90
52543;DHT22;38449;52.696;6.186;2023-05-29T06:24:43;17.90;99.40
52543;DHT22;38449;52.696;6.186;2023-05-29T06:27:10;18.00;99.40
52543;DHT22;38449;52.696;6.186;2023-05-29T06:29:36;17.80;98.80
52543;DHT22;38449;52.696;6.186;2023-05-29T06:32:02;17.80;99.20
52543;DHT22;38449;52.696;6.186;2023-05-29T06:34:29;17.80;98.70
52543;DHT22;38449;52.696;6.186;2023-05-29T06:36:55;17.90;98.60
52543;DHT22;38449;52.696;6.186;2023-05-29T06:39:23;17.80;98.40
52543;DHT22;38449;52.696;6.186;2023-05-29T06:41:50;17.90;98.70
52543;DHT22;38449;52.696;6.186;2023-05-29T06:44:16;17.90;98.50
52543;DHT22;38449;52.696;6.186;2023-05-29T06:46:42;17.70;98.30
52543;DHT22;38449;52.696;6.186;2023-05-29T06:49:08;17.30;98.50
52543;DHT22;38449;52.696;6.186;2023-05-29T06:51:35;16.40;99.20
52543;DHT22;38449;52.696;6.186;2023-05-29T06:54:01;16.50;99.80
52543;DHT22;38449;52.696;6.186;2023-05-29T06:56:27;16.40;99.90
52543;DHT22;38449;52.696;6.186;2023-05-29T06:58:54;15.80;99.90
52543;DHT22;38449;52.696;6.186;2023-05-29T07:01:20;15.50;99.90
52543;DHT22;38449;52.696;6.186;2023-05-29T07:03:47;15.70;99.90
52543;DHT22;38449;52.696;6.186;2023-05-29T07:06:17;15.80;99.90
52543;DHT22;38449;52.696;6.186;2023-05-29T07:08:43;15.90;99.90
52543;DHT22;38449;52.696;6.186;2023-05-29T07:11:09;16.10;99.90
52543;DHT22;38449;52.696;6.186;2023-05-29T07:13:36;16.10;99.90
52543;DHT22;38449;52.696;6.186;2023-05-29T07:16:02;16.00;99.90
52543;DHT22;38449;52.696;6.186;2023-05-29T07:18:28;16.10;99.90
52543;DHT22;38449;52.696;6.186;2023-05-29T07:20:56;15.70;99.90
52543;DHT22;38449;52.696;6.186;2023-05-29T07:23:24;15.60;99.90
52543;DHT22;38449;52.696;6.186;2023-05-29T07:25:50;15.70;99.90
52543;DHT22;38449;52.696;6.186;2023-05-29T07:28:16;15.70;99.90
52543;DHT22;38449;52.696;6.186;2023-05-29T07:30:42;15.80;99.90
52543;DHT22;38449;52.696;6.186;2023-05-29T07:33:09;16.00;99.90
52543;DHT22;38449;52.696;6.186;2023-05-29T07:35:35;16.10;99.90
52543;DHT22;38449;52.696;6.186;2023-05-29T07:38:02;15.80;99.90
52543;DHT22;38449;52.696;6.186;2023-05-29T07:40:28;16.00;99.90
52543;DHT22;38449;52.696;6.186;2023-05-29T07:42:54;16.00;99.90
52543;DHT22;38449;52.696;6.186;2023-05-29T07:45:21;16.00;99.90
52543;DHT22;38449;52.696;6.186;2023-05-29T07:47:47;15.90;99.60
52543;DHT22;38449;52.696;6.186;2023-05-29T07:50:14;15.80;99.70
52543;DHT22;38449;52.696;6.186;2023-05-29T07:52:42;15.70;99.80
52543;DHT22;38449;52.696;6.186;2023-05-29T07:55:09;15.80;99.70
52543;DHT22;38449;52.696;6.186;2023-05-29T07:57:35;15.80;99.80
52543;DHT22;38449;52.696;6.186;2023-05-29T08:00:02;15.70;99.90
52543;DHT22;38449;52.696;6.186;2023-05-29T08:02:35;15.70;99.90
52543;DHT22;38449;52.696;6.186;2023-05-29T08:05:03;15.80;99.90
52543;DHT22;38449;52.696;6.186;2023-05-29T08:07:29;16.00;99.90
52543;DHT22;38449;52.696;6.186;2023-05-29T08:09:58;15.90;99.90
52543;DHT22;38449;52.696;6.186;2023-05-29T08:12:25;15.90;99.90
52543;DHT22;38449;52.696;6.186;2023-05-29T08:14:51;16.20;99.90
52543;DHT22;38449;52.696;6.186;2023-05-29T08:17:17;16.30;99.90
52543;DHT22;38449;52.696;6.186;2023-05-29T08:19:43;16.60;99.80
52543;DHT22;38449;52.696;6.186;2023-05-29T08:22:12;16.80;99.90
52543;DHT22;38449;52.696;6.186;2023-05-29T08:24:40;16.80;99.50
52543;DHT22;38449;52.696;6.186;2023-05-29T08:27:06;16.70;99.30
52543;DHT22;38449;52.696;6.186;2023-05-29T08:29:32;16.50;99.70
52543;DHT22;38449;52.696;6.186;2023-05-29T08:31:58;16.60;99.50
52543;DHT22;38449;52.696;6.186;2023-05-29T08:34:25;16.60;99.50
52543;DHT22;38449;52.696;6.186;2023-05-29T08:36:51;16.40;99.50
52543;DHT22;38449;52.696;6.186;2023-05-29T08:39:17;16.30;99.50
52543;DHT22;38449;52.696;6.186;2023-05-29T08:44:22;16.30;99.70
52543;DHT22;38449;52.696;6.186;2023-05-29T08:46:55;16.40;99.90
52543;DHT22;38449;52.696;6.186;2023-05-29T08:49:22;16.60;99.70
52543;DHT22;38449;52.696;6.186;2023-05-29T08:51:59;16.50;99.40
52543;DHT22;38449;52.696;6.186;2023-05-29T08:54:31;16.40;99.40
52543;DHT22;38449;52.696;6.186;2023-05-29T08:56:59;16.80;99.70
52543;DHT22;38449;52.696;6.186;2023-05-29T08:59:25;16.90;99.50
52543;DHT22;38449;52.696;6.186;2023-05-29T09:01:53;17.00;99.00
52543;DHT22;38449;52.696;6.186;2023-05-29T09:04:19;16.90;99.00
52543;DHT22;38449;52.696;6.186;2023-05-29T09:06:45;16.70;98.80
52543;DHT22;38449;52.696;6.186;2023-05-29T09:09:15;16.60;99.00
52543;DHT22;38449;52.696;6.186;2023-05-29T09:11:43;17.00;99.10
52543;DHT22;38449;52.696;6.186;2023-05-29T09:14:32;17.20;98.80
52543;DHT22;38449;52.696;6.186;2023-05-29T09:17:00;17.20;98.40
52543;DHT22;38449;52.696;6.186;2023-05-29T09:19:27;17.10;98.70
52543;DHT22;38449;52.696;6.186;2023-05-29T09:22:05;17.10;98.80
52543;DHT22;38449;52.696;6.186;2023-05-29T09:24:36;17.30;98.50
52543;DHT22;38449;52.696;6.186;2023-05-29T09:27:03;17.10;98.70
52543;DHT22;38449;52.696;6.186;2023-05-29T09:29:37;17.10;98.70
52543;DHT22;38449;52.696;6.186;2023-05-29T09:32:10;17.10;98.40
52543;DHT22;38449;52.696;6.186;2023-05-29T09:34:37;17.00;98.50
52543;DHT22;38449;52.696;6.186;2023-05-29T09:37:05;17.00;98.50
52543;DHT22;38449;52.696;6.186;2023-05-29T09:39:45;17.10;98.70
52543;DHT22;38449;52.696;6.186;2023-05-29T09:42:13;17.10;98.20
52543;DHT22;38449;52.696;6.186;2023-05-29T09:44:43;17.20;98.00
52543;DHT22;38449;52.696;6.186;2023-05-29T09:47:17;17.20;97.90
52543;DHT22;38449;52.696;6.186;2023-05-29T09:49:44;17.10;97.70
52543;DHT22;38449;52.696;6.186;2023-05-29T09:52:13;17.20;97.80
52543;DHT22;38449;52.696;6.186;2023-05-29T09:54:44;17.20;97.80
52543;DHT22;38449;52.696;6.186;2023-05-29T09:57:16;17.20;98.20
52543;DHT22;38449;52.696;6.186;2023-05-29T09:59:45;17.40;98.20
52543;DHT22;38449;52.696;6.186;2023-05-29T10:02:17;17.50;98.10
52543;DHT22;38449;52.696;6.186;2023-05-29T10:04:44;17.30;97.90
52543;DHT22;38449;52.696;6.186;2023-05-29T10:07:27;17.20;98.40
52543;DHT22;38449;52.696;6.186;2023-05-29T10:10:03;17.20;98.30
52543;DHT22;38449;52.696;6.186;2023-05-29T10:12:32;17.30;98.40
52543;DHT22;38449;52.696;6.186;2023-05-29T10:15:01;17.30;98.30
52543;DHT22;38449;52.696;6.186;2023-05-29T10:17:35;17.50;98.20
52543;DHT22;38449;52.696;6.186;2023-05-29T10:20:05;17.50;98.00
52543;DHT22;38449;52.696;6.186;2023-05-29T10:22:34;17.70;97.90
52543;DHT22;38449;52.696;6.186;2023-05-29T10:25:02;17.70;97.20
52543;DHT22;38449;52.696;6.186;2023-05-29T10:27:29;17.60;97.50
52543;DHT22;38449;52.696;6.186;2023-05-29T10:30:02;17.70;97.40
52543;DHT22;38449;52.696;6.186;2023-05-29T10:32:59;17.90;96.90
52543;DHT22;38449;52.696;6.186;2023-05-29T10:38:15;17.80;96.50
52543;DHT22;38449;52.696;6.186;2023-05-29T10:40:43;17.80;96.90
52543;DHT22;38449;52.696;6.186;2023-05-29T10:43:09;17.80;96.80
52543;DHT22;38449;52.696;6.186;2023-05-29T10:45:55;17.80;96.80
52543;DHT22;38449;52.696;6.186;2023-05-29T10:50:55;17.70;97.20
52543;DHT22;38449;52.696;6.186;2023-05-29T10:53:26;17.90;97.30
52543;DHT22;38449;52.696;6.186;2023-05-29T10:55:56;18.00;97.30
52543;DHT22;38449;52.696;6.186;2023-05-29T10:58:25;18.10;97.10
52543;DHT22;38449;52.696;6.186;2023-05-29T11:00:53;18.40;97.10
52543;DHT22;38449;52.696;6.186;2023-05-29T11:03:23;18.40;96.80
52543;DHT22;38449;52.696;6.186;2023-05-29T11:06:16;18.30;96.60
52543;DHT22;38449;52.696;6.186;2023-05-29T11:08:47;18.20;96.30
52543;DHT22;38449;52.696;6.186;2023-05-29T11:11:30;18.40;96.80
52543;DHT22;38449;52.696;6.186;2023-05-29T11:14:01;18.40;96.90
52543;DHT22;38449;52.696;6.186;2023-05-29T11:16:38;18.20;96.70
52543;DHT22;38449;52.696;6.186;2023-05-29T11:19:08;18.20;96.70
52543;DHT22;38449;52.696;6.186;2023-05-29T11:24:22;18.40;96.70
52543;DHT22;38449;52.696;6.186;2023-05-29T11:26:51;18.40;96.70
52543;DHT22;38449;52.696;6.186;2023-05-29T11:29:28;18.40;96.60
52543;DHT22;38449;52.696;6.186;2023-05-29T11:32:05;18.50;96.60
52543;DHT22;38449;52.696;6.186;2023-05-29T11:34:39;18.50;96.50
52543;DHT22;38449;52.696;6.186;2023-05-29T11:37:06;18.50;96.90
52543;DHT22;38449;52.696;6.186;2023-05-29T11:39:36;18.60;96.90
52543;DHT22;38449;52.696;6.186;2023-05-29T11:42:03;18.60;96.40
52543;DHT22;38449;52.696;6.186;2023-05-29T11:44:29;18.70;96.10
52543;DHT22;38449;52.696;6.186;2023-05-29T11:47:06;18.80;96.40
52543;DHT22;38449;52.696;6.186;2023-05-29T11:49:34;18.50;96.40
52543;DHT22;38449;52.696;6.186;2023-05-29T11:52:12;18.50;96.50
52543;DHT22;38449;52.696;6.186;2023-05-29T11:54:38;18.70;95.50
52543;DHT22;38449;52.696;6.186;2023-05-29T11:57:04;18.70;96.00
52543;DHT22;38449;52.696;6.186;2023-05-29T11:59:32;18.50;96.30
52543;DHT22;38449;52.696;6.186;2023-05-29T12:02:02;18.70;96.20
52543;DHT22;38449;52.696;6.186;2023-05-29T12:04:29;18.70;96.30
52543;DHT22;38449;52.696;6.186;2023-05-29T12:06:55;18.70;96.30
52543;DHT22;38449;52.696;6.186;2023-05-29T12:09:26;19.10;96.30
52543;DHT22;38449;52.696;6.186;2023-05-29T12:12:02;19.00;95.40
52543;DHT22;38449;52.696;6.186;2023-05-29T12:14:28;19.10;95.80
52543;DHT22;38449;52.696;6.186;2023-05-29T12:16:55;19.10;95.80
52543;DHT22;38449;52.696;6.186;2023-05-29T12:19:22;19.00;95.60
52543;DHT22;38449;52.696;6.186;2023-05-29T12:21:48;18.80;95.80
52543;DHT22;38449;52.696;6.186;2023-05-29T12:24:15;18.80;96.20
52543;DHT22;38449;52.696;6.186;2023-05-29T12:26:43;18.90;96.00
52543;DHT22;38449;52.696;6.186;2023-05-29T12:29:09;18.80;95.70
52543;DHT22;38449;52.696;6.186;2023-05-29T12:31:36;18.70;95.80
52543;DHT22;38449;52.696;6.186;2023-05-29T12:34:08;18.80;96.00
52543;DHT22;38449;52.696;6.186;2023-05-29T12:36:34;18.80;95.60
52543;DHT22;38449;52.696;6.186;2023-05-29T12:39:06;18.80;95.80
52543;DHT22;38449;52.696;6.186;2023-05-29T12:41:35;18.70;95.80
52543;DHT22;38449;52.696;6.186;2023-05-29T12:44:03;18.80;96.10
52543;DHT22;38449;52.696;6.186;2023-05-29T12:46:36;18.80;96.00
52543;DHT22;38449;52.696;6.186;2023-05-29T12:49:16;18.90;96.10
52543;DHT22;38449;52.696;6.186;2023-05-29T12:51:44;19.00;95.00
52543;DHT22;38449;52.696;6.186;2023-05-29T12:54:12;18.80;95.20
52543;DHT22;38449;52.696;6.186;2023-05-29T12:56:39;18.60;95.30
52543;DHT22;38449;52.696;6.186;2023-05-29T12:59:09;18.60;95.40
52543;DHT22;38449;52.696;6.186;2023-05-29T13:01:38;18.70;95.10
52543;DHT22;38449;52.696;6.186;2023-05-29T13:04:05;18.70;95.20
52543;DHT22;38449;52.696;6.186;2023-05-29T13:06:39;18.70;95.60
52543;DHT22;38449;52.696;6.186;2023-05-29T13:09:06;18.70;96.00
52543;DHT22;38449;52.696;6.186;2023-05-29T13:11:33;18.80;96.10
52543;DHT22;38449;52.696;6.186;2023-05-29T13:14:00;18.70;96.00
52543;DHT22;38449;52.696;6.186;2023-05-29T13:16:26;18.80;95.80
52543;DHT22;38449;52.696;6.186;2023-05-29T13:18:52;18.70;96.00
52543;DHT22;38449;52.696;6.186;2023-05-29T13:21:18;18.70;95.90
52543;DHT22;38449;52.696;6.186;2023-05-29T13:23:45;18.70;95.80
52543;DHT22;38449;52.696;6.186;2023-05-29T13:26:11;18.70;95.60
52543;DHT22;38449;52.696;6.186;2023-05-29T13:28:37;18.60;95.80
52543;DHT22;38449;52.696;6.186;2023-05-29T13:31:04;18.90;95.90
52543;DHT22;38449;52.696;6.186;2023-05-29T13:33:30;19.10;96.00
52543;DHT22;38449;52.696;6.186;2023-05-29T13:35:56;19.20;95.30
52543;DHT22;38449;52.696;6.186;2023-05-29T13:38:22;19.20;95.40
52543;DHT22;38449;52.696;6.186;2023-05-29T13:40:49;19.30;94.90
52543;DHT22;38449;52.696;6.186;2023-05-29T13:43:15;19.20;94.40
52543;DHT22;38449;52.696;6.186;2023-05-29T13:45:41;19.20;94.50
52543;DHT22;38449;52.696;6.186;2023-05-29T13:48:08;19.10;94.20
52543;DHT22;38449;52.696;6.186;2023-05-29T13:50:34;19.00;94.20
52543;DHT22;38449;52.696;6.186;2023-05-29T13:53:00;19.10;94.40
52543;DHT22;38449;52.696;6.186;2023-05-29T13:55:26;19.10;94.30
52543;DHT22;38449;52.696;6.186;2023-05-29T13:57:52;19.20;94.40
52543;DHT22;38449;52.696;6.186;2023-05-29T14:00:19;19.20;94.40
52543;DHT22;38449;52.696;6.186;2023-05-29T14:02:45;19.20;94.20
52543;DHT22;38449;52.696;6.186;2023-05-29T14:05:12;19.10;94.00
52543;DHT22;38449;52.696;6.186;2023-05-29T14:07:38;19.20;94.30
52543;DHT22;38449;52.696;6.186;2023-05-29T14:10:05;19.20;94.70
52543;DHT22;38449;52.696;6.186;2023-05-29T14:12:31;19.20;94.60
52543;DHT22;38449;52.696;6.186;2023-05-29T14:14:57;19.30;94.30
52543;DHT22;38449;52.696;6.186;2023-05-29T14:17:24;19.30;93.90
52543;DHT22;38449;52.696;6.186;2023-05-29T14:19:52;19.20;93.70
52543;DHT22;38449;52.696;6.186;2023-05-29T14:22:18;19.20;93.40
52543;DHT22;38449;52.696;6.186;2023-05-29T14:24:44;19.20;93.70
52543;DHT22;38449;52.696;6.186;2023-05-29T14:27:11;19.20;93.90
52543;DHT22;38449;52.696;6.186;2023-05-29T14:29:37;19.10;93.80
52543;DHT22;38449;52.696;6.186;2023-05-29T14:32:03;19.20;94.10
52543;DHT22;38449;52.696;6.186;2023-05-29T14:34:29;19.20;93.90
52543;DHT22;38449;52.696;6.186;2023-05-29T14:36:56;19.30;93.50
52543;DHT22;38449;52.696;6.186;2023-05-29T14:39:22;19.30;93.70
52543;DHT22;38449;52.696;6.186;2023-05-29T14:41:48;19.30;93.50
52543;DHT22;38449;52.696;6.186;2023-05-29T14:44:15;19.40;93.20
52543;DHT22;38449;52.696;6.186;2023-05-29T14:46:42;19.30;93.10
52543;DHT22;38449;52.696;6.186;2023-05-29T14:49:08;19.20;93.00
52543;DHT22;38449;52.696;6.186;2023-05-29T14:51:34;19.20;92.70
52543;DHT22;38449;52.696;6.186;2023-05-29T14:54:02;19.20;92.50
52543;DHT22;38449;52.696;6.186;2023-05-29T14:56:29;19.30;92.80
52543;DHT22;38449;52.696;6.186;2023-05-29T14:58:55;19.30;92.70
52543;DHT22;38449;52.696;6.186;2023-05-29T15:01:21;19.20;93.30
52543;DHT22;38449;52.696;6.186;2023-05-29T15:03:47;19.40;92.90
52543;DHT22;38449;52.696;6.186;2023-05-29T15:06:14;19.40;92.70
52543;DHT22;38449;52.696;6.186;2023-05-29T15:08:40;19.20;93.10
52543;DHT22;38449;52.696;6.186;2023-05-29T15:11:09;19.20;93.10
52543;DHT22;38449;52.696;6.186;2023-05-29T15:13:35;19.20;93.00
52543;DHT22;38449;52.696;6.186;2023-05-29T15:16:02;19.10;93.00
52543;DHT22;38449;52.696;6.186;2023-05-29T15:18:30;19.10;93.00
52543;DHT22;38449;52.696;6.186;2023-05-29T15:20:56;18.90;93.20
52543;DHT22;38449;52.696;6.186;2023-05-29T15:23:24;18.90;93.50
52543;DHT22;38449;52.696;6.186;2023-05-29T15:25:51;18.70;93.50
52543;DHT22;38449;52.696;6.186;2023-05-29T15:28:17;18.80;93.80
52543;DHT22;38449;52.696;6.186;2023-05-29T15:30:44;18.70;93.70
52543;DHT22;38449;52.696;6.186;2023-05-29T15:33:11;18.70;93.40
52543;DHT22;38449;52.696;6.186;2023-05-29T15:35:37;18.70;93.50
52543;DHT22;38449;52.696;6.186;2023-05-29T15:38:04;18.70;93.60
52543;DHT22;38449;52.696;6.186;2023-05-29T15:40:30;18.70;93.70
52543;DHT22;38449;52.696;6.186;2023-05-29T15:42:56;18.70;93.80
52543;DHT22;38449;52.696;6.186;2023-05-29T15:45:23;18.70;93.50
52543;DHT22;38449;52.696;6.186;2023-05-29T15:47:49;18.70;93.50
52543;DHT22;38449;52.696;6.186;2023-05-29T15:50:16;18.70;93.70
52543;DHT22;38449;52.696;6.186;2023-05-29T15:52:42;18.70;93.80
52543;DHT22;38449;52.696;6.186;2023-05-29T15:55:09;18.60;93.80
52543;DHT22;38449;52.696;6.186;2023-05-29T15:57:35;18.60;93.80
52543;DHT22;38449;52.696;6.186;2023-05-29T16:00:02;18.60;93.80